Terminal Aerodrome Forecast
Issued by NWS

Home | Current Version | Previous Version | Text Only | Print | Product List | Glossary On
Versions: 1 2 3 4 5 6 7 8 9 10 11 12 13 14 15
000
FTAK31 PAFA 172338
TAFAGA
TAF
PAGA 172338Z 1800/1824 VRB03KT 6SM BR SCT001
     FM180300 VRB03KT 3SM BR SCT001
     FM181300 00000KT 1 1/2SM BR SCT001
     FM182100 VRB03KT 6SM BR SCT001=

USA.gov is the U.S. government's official web portal to all federal, state and local government web resources and services.